Time;durP1;ratioP1;P1;durP2;ratioP2;P2;SDS_P1;SDS_P2;PMS_P1;PMS_P2;Temp;Humidity;BMP_temperature;BMP_pressure;BME280_temperature;BME280_humidity;BME280_pressure;Samples;Min_cycle;Max_cycle;Signal;HPM_P1;HPM_P2
2021/06/20 00:01:21;;;;;;;21.00;14.40;;;16.80;63.30;;;;;;6122973;23;19998;-73
2021/06/20 00:04:27;;;;;;;17.13;13.57;;;16.70;63.20;;;;;;6122492;23;20338;-73
2021/06/20 00:07:33;;;;;;;18.75;14.05;;;16.70;63.20;;;;;;6123820;23;19998;-73
2021/06/20 00:10:42;;;;;;;17.88;12.68;;;16.70;63.30;;;;;;6124526;23;20024;-73
2021/06/20 00:13:48;;;;;;;13.80;11.10;;;16.70;63.30;;;;;;6122321;23;20010;-73
2021/06/20 00:16:54;;;;;;;14.80;11.32;;;16.70;63.20;;;;;;6123452;23;20188;-73
2021/06/20 00:23:29;;;;;;;15.23;10.85;;;16.70;63.10;;;;;;6063507;23;20137;-74
2021/06/20 00:26:35;;;;;;;12.98;9.45;;;16.70;63.10;;;;;;6039034;23;20451;-73
2021/06/20 00:29:41;;;;;;;15.57;10.13;;;16.70;63.10;;;;;;6037841;23;20327;-73
2021/06/20 00:32:47;;;;;;;15.50;9.88;;;16.70;63.20;;;;;;6038697;23;20003;-73
2021/06/20 00:35:55;;;;;;;14.30;10.02;;;16.70;63.10;;;;;;6063969;23;20007;-74
2021/06/20 00:39:01;;;;;;;12.27;9.80;;;16.70;63.10;;;;;;6062774;23;20007;-73
2021/06/20 00:42:07;;;;;;;13.10;9.32;;;16.70;63.10;;;;;;6062480;23;20455;-73
2021/06/20 00:45:22;;;;;;;12.60;9.55;;;16.80;63.20;;;;;;6063135;23;20021;-73
2021/06/20 00:48:28;;;;;;;13.90;10.52;;;16.80;63.20;;;;;;6063425;23;20007;-73
2021/06/20 00:51:34;;;;;;;14.43;9.65;;;16.80;63.30;;;;;;6061904;23;20007;-72
2021/06/20 00:54:47;;;;;;;12.55;10.00;;;16.80;63.30;;;;;;6115936;23;20009;-74
2021/06/20 00:57:56;;;;;;;13.43;9.80;;;16.80;63.40;;;;;;6124316;23;20009;-74
2021/06/20 01:01:02;;;;;;;13.27;9.13;;;16.80;63.30;;;;;;6123927;23;20060;-74
2021/06/20 01:04:08;;;;;;;12.23;8.20;;;16.80;63.40;;;;;;6122392;23;20017;-73
2021/06/20 01:07:14;;;;;;;14.55;10.30;;;16.80;63.40;;;;;;6124076;23;20125;-72
2021/06/20 01:10:20;;;;;;;23.30;11.00;;;16.80;63.50;;;;;;6123782;23;20018;-72
2021/06/20 01:13:26;;;;;;;14.05;9.00;;;16.80;63.60;;;;;;6121167;23;20061;-72
2021/06/20 01:16:32;;;;;;;11.70;9.13;;;16.80;63.60;;;;;;6120765;23;20352;-73
2021/06/20 01:19:38;;;;;;;12.70;9.02;;;16.80;63.50;;;;;;6124570;23;20002;-72
2021/06/20 01:23:00;;;;;;;13.38;8.63;;;16.80;63.60;;;;;;6121849;23;20006;-73
2021/06/20 01:26:06;;;;;;;11.07;8.55;;;16.80;63.60;;;;;;6122598;23;20009;-73
2021/06/20 01:29:13;;;;;;;11.88;9.48;;;16.70;63.50;;;;;;6121434;23;20016;-73
2021/06/20 01:32:19;;;;;;;11.73;8.68;;;16.70;63.60;;;;;;6124179;23;20061;-73
2021/06/20 01:35:25;;;;;;;11.18;8.20;;;16.70;63.60;;;;;;6123807;23;20006;-73
2021/06/20 01:38:32;;;;;;;10.40;7.82;;;16.70;63.70;;;;;;6122514;23;20081;-73
2021/06/20 01:41:38;;;;;;;10.32;6.90;;;16.70;63.70;;;;;;6124094;23;20008;-73
2021/06/20 01:44:44;;;;;;;10.40;7.63;;;16.60;63.50;;;;;;6124071;23;20013;-73
2021/06/20 01:47:50;;;;;;;13.30;7.05;;;16.60;63.50;;;;;;6122484;23;20009;-73
2021/06/20 01:50:56;;;;;;;9.38;7.40;;;16.60;63.50;;;;;;6123323;23;20022;-74
2021/06/20 01:53:42;;;;;;;;;;;16.60;63.50;;;;;;6122465;23;20468;-73
2021/06/20 01:56:48;;;;;;;9.20;6.47;;;16.60;63.50;;;;;;6122713;23;19901;-73
2021/06/20 01:59:54;;;;;;;12.00;7.20;;;16.60;63.60;;;;;;6121344;23;20069;-73
2021/06/20 02:03:00;;;;;;;12.25;5.80;;;16.60;63.60;;;;;;6122288;23;20599;-74
2021/06/20 02:06:07;;;;;;;7.25;5.43;;;16.60;63.60;;;;;;6123277;23;20006;-73
2021/06/20 02:09:14;;;;;;;6.82;6.05;;;16.50;63.60;;;;;;6121943;23;20093;-73
2021/06/20 02:12:20;;;;;;;12.70;8.50;;;16.50;63.60;;;;;;6121924;23;20009;-74
2021/06/20 02:15:26;;;;;;;11.27;9.27;;;16.50;63.70;;;;;;6122768;23;20880;-73
2021/06/20 02:18:32;;;;;;;10.07;8.13;;;16.50;63.70;;;;;;6122524;23;20009;-74
2021/06/20 02:21:38;;;;;;;8.88;7.30;;;16.40;63.70;;;;;;6119816;23;20009;-72
2021/06/20 02:24:44;;;;;;;12.07;7.47;;;16.50;63.80;;;;;;6122273;23;20094;-73
2021/06/20 02:27:50;;;;;;;9.15;7.85;;;16.40;63.70;;;;;;6123487;23;20041;-73
2021/06/20 02:30:57;;;;;;;10.18;7.70;;;16.40;63.80;;;;;;6121673;23;20005;-73
2021/06/20 02:34:03;;;;;;;11.40;6.18;;;16.40;63.80;;;;;;6120186;23;20481;-74
2021/06/20 02:37:09;;;;;;;8.85;6.65;;;16.40;63.80;;;;;;6123714;23;20318;-73
2021/06/20 02:40:15;;;;;;;9.90;6.55;;;16.40;63.90;;;;;;6122871;23;20021;-73
2021/06/20 02:43:21;;;;;;;9.68;6.45;;;16.40;63.90;;;;;;6122190;23;20002;-74
2021/06/20 02:46:27;;;;;;;7.78;5.70;;;16.40;64.00;;;;;;6123393;23;20402;-73
2021/06/20 02:49:33;;;;;;;8.45;6.03;;;16.30;64.00;;;;;;6123520;23;20005;-74
2021/06/20 02:52:39;;;;;;;9.18;6.07;;;16.30;64.00;;;;;;6121786;23;20603;-74
2021/06/20 02:55:45;;;;;;;7.10;5.70;;;16.30;63.90;;;;;;6122610;23;20009;-73
2021/06/20 02:58:51;;;;;;;6.60;5.85;;;16.30;63.90;;;;;;6123445;23;20422;-73
2021/06/20 03:01:57;;;;;;;7.97;5.70;;;16.30;64.00;;;;;;6122413;23;19998;-73
2021/06/20 03:04:24;;;;;;;7.10;6.35;;;16.30;64.10;;;;;;6121982;23;20009;-72
2021/06/20 03:06:50;;;;;;;7.15;6.45;;;16.30;64.10;;;;;;6123103;23;20012;-73
2021/06/20 03:09:17;;;;;;;6.65;5.93;;;16.30;64.00;;;;;;6121497;23;20442;-73
2021/06/20 03:11:43;;;;;;;7.68;6.00;;;16.30;64.00;;;;;;6123011;23;20777;-72
2021/06/20 03:14:14;;;;;;;8.02;5.82;;;16.20;63.90;;;;;;6122660;23;20006;-73
2021/06/20 03:16:44;;;;;;;7.93;5.47;;;16.20;63.90;;;;;;6122685;23;20032;-73
2021/06/20 03:19:13;;;;;;;7.22;5.70;;;16.30;63.90;;;;;;6122968;23;20002;-73
2021/06/20 03:21:39;;;;;;;9.10;5.53;;;16.20;63.80;;;;;;6121732;23;20010;-74
2021/06/20 03:24:06;;;;;;;9.55;5.38;;;16.20;63.80;;;;;;6121876;23;20359;-73
2021/06/20 03:26:33;;;;;;;8.70;5.18;;;16.20;63.70;;;;;;6121901;23;20002;-74
2021/06/20 03:29:00;;;;;;;6.38;5.65;;;16.20;63.80;;;;;;6122648;23;20005;-75
2021/06/20 03:31:27;;;;;;;6.15;4.95;;;16.20;63.70;;;;;;6122114;23;20439;-74
2021/06/20 03:33:57;;;;;;;6.15;5.32;;;16.20;63.70;;;;;;6122295;23;20338;-74
2021/06/20 03:36:24;;;;;;;6.00;5.30;;;16.20;63.70;;;;;;6122291;23;20002;-74
2021/06/20 03:38:50;;;;;;;7.65;5.57;;;16.20;63.70;;;;;;6121659;23;19998;-74
2021/06/20 03:41:17;;;;;;;10.13;6.50;;;16.20;63.80;;;;;;6122414;23;20118;-73
2021/06/20 03:43:44;;;;;;;7.18;6.25;;;16.20;63.70;;;;;;6121401;23;20372;-73
2021/06/20 03:46:11;;;;;;;9.95;6.93;;;16.10;63.70;;;;;;6122738;23;20036;-73
2021/06/20 03:48:38;;;;;;;10.05;6.47;;;16.10;63.80;;;;;;6121824;23;20002;-72
2021/06/20 03:51:06;;;;;;;9.00;7.55;;;16.10;63.70;;;;;;6122628;23;20322;-73
2021/06/20 03:53:32;;;;;;;8.70;7.60;;;16.10;63.80;;;;;;6122605;23;20084;-76
2021/06/20 03:55:59;;;;;;;9.48;8.02;;;16.10;63.80;;;;;;6121858;23;20005;-75
2021/06/20 03:58:26;;;;;;;10.70;8.27;;;16.10;63.80;;;;;;6122929;23;20002;-76
2021/06/20 04:00:53;;;;;;;12.25;10.38;;;16.10;63.80;;;;;;6121664;23;20009;-76
2021/06/20 04:03:20;;;;;;;13.85;10.55;;;16.10;63.80;;;;;;6122794;23;20045;-76
2021/06/20 04:05:46;;;;;;;13.38;10.77;;;16.10;64.50;;;;;;6119780;23;20006;-76
2021/06/20 04:08:13;;;;;;;14.60;9.68;;;16.10;63.90;;;;;;6122343;23;20024;-75
2021/06/20 04:10:39;;;;;;;11.18;9.27;;;16.00;63.90;;;;;;6122313;23;20014;-75
2021/06/20 04:13:06;;;;;;;11.68;9.32;;;16.10;63.90;;;;;;6121893;23;20002;-76
2021/06/20 04:15:32;;;;;;;10.77;8.38;;;16.10;64.00;;;;;;6122928;23;20006;-76
2021/06/20 04:17:59;;;;;;;10.73;8.07;;;16.10;64.00;;;;;;6120681;23;20156;-75
2021/06/20 04:20:25;;;;;;;10.85;8.68;;;16.10;64.00;;;;;;6123001;23;19998;-75
2021/06/20 04:22:52;;;;;;;9.77;8.77;;;16.10;64.00;;;;;;6121399;23;20006;-76
2021/06/20 04:25:18;;;;;;;12.27;8.07;;;16.00;63.90;;;;;;6122453;23;20022;-77
2021/06/20 04:27:48;;;;;;;12.10;8.65;;;16.00;63.90;;;;;;6121848;23;20089;-74
2021/06/20 04:30:16;;;;;;;8.77;7.32;;;16.00;64.00;;;;;;6122102;23;20002;-76
2021/06/20 04:32:44;;;;;;;13.13;8.20;;;16.00;64.00;;;;;;6122613;23;20002;-77
2021/06/20 04:35:12;;;;;;;9.10;7.72;;;16.00;64.00;;;;;;6119841;23;20006;-75
2021/06/20 04:37:40;;;;;;;10.23;8.25;;;16.00;64.10;;;;;;6123090;23;20350;-75
2021/06/20 04:40:11;;;;;;;16.65;12.50;;;16.00;64.10;;;;;;6121731;23;20002;-76
2021/06/20 04:42:40;;;;;;;20.52;14.32;;;16.00;64.20;;;;;;6121601;23;20013;-75
2021/06/20 04:45:09;;;;;;;15.07;11.20;;;16.00;64.30;;;;;;6120902;23;20018;-75
2021/06/20 04:47:36;;;;;;;13.82;10.23;;;15.90;64.20;;;;;;6121152;23;20002;-75
2021/06/20 04:50:04;;;;;;;12.45;9.60;;;16.00;64.30;;;;;;6122111;23;20503;-75
2021/06/20 04:52:31;;;;;;;9.02;8.02;;;16.00;64.40;;;;;;6122170;23;20005;-74
2021/06/20 04:54:58;;;;;;;10.43;8.02;;;15.90;64.30;;;;;;6123799;23;20025;-76
2021/06/20 04:57:29;;;;;;;8.38;7.50;;;15.90;64.40;;;;;;6122585;23;20359;-75
2021/06/20 05:00:02;;;;;;;8.45;7.20;;;15.90;64.30;;;;;;6123891;23;20093;-75
2021/06/20 05:02:29;;;;;;;9.07;7.28;;;15.90;64.30;;;;;;6122952;23;20006;-73
2021/06/20 05:04:56;;;;;;;9.07;7.15;;;15.90;64.20;;;;;;6122795;23;20010;-74
2021/06/20 05:07:23;;;;;;;10.00;6.32;;;15.90;64.20;;;;;;6122367;23;20002;-74
2021/06/20 05:09:49;;;;;;;6.80;6.07;;;15.90;64.10;;;;;;6120458;23;20418;-75
2021/06/20 05:12:17;;;;;;;9.30;6.65;;;15.90;64.20;;;;;;6122443;23;20122;-76
2021/06/20 05:14:46;;;;;;;7.10;6.00;;;15.90;64.20;;;;;;6122437;23;20010;-75
2021/06/20 05:17:17;;;;;;;7.68;6.40;;;15.90;64.20;;;;;;6123939;23;20002;-74
2021/06/20 05:19:43;;;;;;;9.75;6.13;;;15.90;64.20;;;;;;6123633;23;20347;-74
2021/06/20 05:22:13;;;;;;;7.60;6.18;;;15.90;64.20;;;;;;6123172;23;20155;-81
2021/06/20 05:24:41;;;;;;;8.50;7.38;;;15.90;64.20;;;;;;6123490;23;20438;-75
2021/06/20 05:27:08;;;;;;;9.50;7.10;;;15.90;64.20;;;;;;6121978;23;20339;-80
2021/06/20 05:29:35;;;;;;;9.45;6.60;;;15.90;64.20;;;;;;6123377;23;20422;-74
2021/06/20 05:32:41;;;;;;;9.30;6.97;;;15.90;64.20;;;;;;6118427;23;20013;-74
2021/06/20 05:35:48;;;;;;;8.45;6.22;;;15.90;64.90;;;;;;6123301;23;20029;-73
2021/06/20 05:38:54;;;;;;;8.00;5.95;;;15.80;64.20;;;;;;6122695;23;20029;-75
2021/06/20 05:42:00;;;;;;;8.73;6.72;;;15.80;64.20;;;;;;6121510;23;20010;-74
2021/06/20 05:45:06;;;;;;;8.98;7.25;;;15.90;64.30;;;;;;6121835;23;20478;-74
2021/06/20 05:48:12;;;;;;;8.23;7.30;;;15.80;64.30;;;;;;6122176;23;20312;-75
2021/06/20 05:51:18;;;;;;;8.27;6.53;;;15.80;64.40;;;;;;6122200;23;20006;-75
2021/06/20 05:54:24;;;;;;;10.77;7.78;;;15.80;64.40;;;;;;6120108;23;19998;-75
2021/06/20 05:57:30;;;;;;;9.80;8.40;;;15.80;64.40;;;;;;6121750;23;20069;-72
2021/06/20 06:00:37;;;;;;;11.02;7.95;;;15.80;64.40;;;;;;6123350;23;20006;-72
2021/06/20 06:03:43;;;;;;;10.82;6.90;;;15.80;64.30;;;;;;6119249;23;20010;-74
2021/06/20 06:06:49;;;;;;;10.02;6.88;;;15.70;64.30;;;;;;6117603;23;20434;-73
2021/06/20 06:09:55;;;;;;;9.30;7.35;;;15.80;64.40;;;;;;6120581;23;20025;-72
2021/06/20 06:13:01;;;;;;;19.00;13.98;;;15.80;64.40;;;;;;6120149;23;20671;-73
2021/06/20 06:16:07;;;;;;;21.88;16.50;;;15.70;64.40;;;;;;6117309;23;20081;-72
2021/06/20 06:19:16;;;;;;;17.50;13.25;;;15.70;64.50;;;;;;6119461;23;20053;-72
2021/06/20 06:22:22;;;;;;;13.95;10.38;;;15.70;64.50;;;;;;6120507;23;20025;-72
2021/06/20 06:25:28;;;;;;;14.55;10.18;;;15.80;64.70;;;;;;6120461;23;20014;-72
2021/06/20 06:28:34;;;;;;;12.32;7.57;;;15.70;64.80;;;;;;6119367;23;20288;-72
2021/06/20 06:31:41;;;;;;;11.88;7.95;;;15.70;64.80;;;;;;6119438;23;20010;-72
2021/06/20 06:34:48;;;;;;;9.02;7.93;;;15.70;64.90;;;;;;6121218;23;20086;-71
2021/06/20 06:37:54;;;;;;;11.48;7.95;;;15.70;64.90;;;;;;6119859;23;20045;-73
2021/06/20 06:41:00;;;;;;;11.85;7.97;;;15.70;65.00;;;;;;6118793;23;20492;-71
2021/06/20 06:44:06;;;;;;;13.60;9.05;;;15.70;65.10;;;;;;6121675;23;20089;-71
2021/06/20 06:47:12;;;;;;;9.55;7.32;;;15.70;65.10;;;;;;6122307;23;20005;-71
2021/06/20 06:50:18;;;;;;;8.55;7.30;;;15.70;65.20;;;;;;6120754;23;20076;-72
2021/06/20 06:53:24;;;;;;;11.95;7.97;;;15.70;65.30;;;;;;6122442;23;20029;-72
2021/06/20 06:56:30;;;;;;;11.00;8.32;;;15.80;65.50;;;;;;6122625;23;20097;-72
2021/06/20 06:59:36;;;;;;;14.02;9.32;;;15.80;65.50;;;;;;6121131;23;20009;-71
2021/06/20 07:02:43;;;;;;;12.57;9.20;;;15.70;65.50;;;;;;6121338;23;20015;-70
2021/06/20 07:05:49;;;;;;;11.05;9.77;;;15.80;65.60;;;;;;6122971;23;20014;-71
2021/06/20 07:08:15;;;;;;;12.82;9.15;;;15.80;65.70;;;;;;6121115;23;20017;-74
2021/06/20 07:10:42;;;;;;;11.07;9.57;;;15.80;65.80;;;;;;6118452;23;20017;-69
2021/06/20 07:13:09;;;;;;;16.20;10.10;;;15.80;65.90;;;;;;6120620;23;20005;-72
2021/06/20 07:15:36;;;;;;;12.48;9.98;;;15.90;66.00;;;;;;6119478;23;20592;-72
2021/06/20 07:18:03;;;;;;;16.33;12.70;;;15.90;66.00;;;;;;6120596;23;20005;-69
2021/06/20 07:20:30;;;;;;;20.15;14.63;;;15.80;66.00;;;;;;6118432;23;20366;-72
2021/06/20 07:22:56;;;;;;;21.10;15.05;;;15.90;66.20;;;;;;6120554;23;20430;-73
2021/06/20 07:25:23;;;;;;;20.25;15.13;;;15.90;66.20;;;;;;6120587;23;20442;-69
2021/06/20 07:27:51;;;;;;;20.52;14.57;;;15.90;66.30;;;;;;6120258;23;20004;-71
2021/06/20 07:30:20;;;;;;;41.80;15.82;;;16.00;66.40;;;;;;6121247;23;20133;-68
2021/06/20 07:32:47;;;;;;;51.17;18.63;;;16.00;66.50;;;;;;6119983;23;20030;-70
2021/06/20 07:35:14;;;;;;;47.38;18.60;;;16.00;66.50;;;;;;6120737;23;20049;-70
2021/06/20 07:37:41;;;;;;;52.15;16.27;;;16.10;66.70;;;;;;6119766;23;20012;-69
2021/06/20 07:40:13;;;;;;;45.90;15.38;;;16.00;66.70;;;;;;6121479;23;19998;-72
2021/06/20 07:42:41;;;;;;;33.38;14.73;;;16.10;67.00;;;;;;6122481;23;20013;-72
2021/06/20 07:45:08;;;;;;;38.45;15.02;;;16.10;67.00;;;;;;6122104;23;20387;-69
2021/06/20 07:47:36;;;;;;;24.50;13.98;;;16.10;67.10;;;;;;6123105;23;20077;-71
2021/06/20 07:50:06;;;;;;;45.90;30.00;;;16.20;67.30;;;;;;6121736;23;19998;-71
2021/06/20 07:52:32;;;;;;;20.98;12.63;;;16.20;67.30;;;;;;6122638;23;20006;-68
2021/06/20 07:54:59;;;;;;;11.77;7.75;;;16.30;66.10;;;;;;6121587;23;19998;-70
2021/06/20 07:57:26;;;;;;;7.63;6.30;;;16.30;65.30;;;;;;6122902;23;20002;-71
2021/06/20 07:59:53;;;;;;;6.78;4.57;;;16.40;63.90;;;;;;6122334;23;20033;-71
2021/06/20 08:02:20;;;;;;;6.22;4.93;;;16.50;62.60;;;;;;6122032;23;20088;-72
2021/06/20 08:04:47;;;;;;;6.82;5.47;;;16.60;63.30;;;;;;6123319;23;20418;-69
2021/06/20 08:07:14;;;;;;;5.55;4.80;;;16.70;62.60;;;;;;6121375;23;20002;-71
2021/06/20 08:09:42;;;;;;;8.13;6.97;;;16.80;63.30;;;;;;6122384;23;20026;-67
2021/06/20 08:12:09;;;;;;;12.23;8.95;;;16.90;64.70;;;;;;6121146;23;20590;-69
2021/06/20 08:14:37;;;;;;;9.57;7.22;;;17.00;65.40;;;;;;6122689;23;20006;-70
2021/06/20 08:17:04;;;;;;;8.43;6.78;;;17.00;65.30;;;;;;6121565;23;20009;-70
2021/06/20 08:19:31;;;;;;;9.27;6.35;;;17.10;64.90;;;;;;6122411;23;20002;-71
2021/06/20 08:22:37;;;;;;;7.32;6.30;;;17.20;65.20;;;;;;6122590;23;20490;-68
2021/06/20 08:25:44;;;;;;;6.20;5.57;;;17.20;64.60;;;;;;6120989;23;20446;-68
2021/06/20 08:28:50;;;;;;;11.02;6.20;;;17.30;65.00;;;;;;6123957;23;20008;-70
2021/06/20 08:31:56;;;;;;;8.27;6.80;;;17.40;65.50;;;;;;6123342;23;20006;-69
2021/06/20 08:35:03;;;;;;;27.25;21.13;;;17.50;65.80;;;;;;6122998;23;20303;-67
2021/06/20 08:38:09;;;;;;;12.30;10.30;;;17.60;65.70;;;;;;6122781;23;20005;-67
2021/06/20 08:41:15;;;;;;;13.00;7.68;;;17.60;63.70;;;;;;6123405;23;20006;-67
2021/06/20 08:44:21;;;;;;;5.50;4.55;;;17.80;63.10;;;;;;6124014;23;20010;-70
2021/06/20 08:47:27;;;;;;;8.50;5.00;;;18.00;60.00;;;;;;6123692;23;20474;-68
2021/06/20 08:50:33;;;;;;;8.18;4.13;;;18.10;60.30;;;;;;6123389;23;19994;-70
2021/06/20 08:53:39;;;;;;;5.30;4.28;;;18.20;60.00;;;;;;6124203;23;20009;-68
2021/06/20 08:56:47;;;;;;;4.43;3.75;;;18.30;60.90;;;;;;6122009;23;20010;-71
2021/06/20 08:59:53;;;;;;;4.25;3.75;;;18.40;60.50;;;;;;6122190;23;20363;-70
2021/06/20 09:03:17;;;;;;;4.40;3.70;;;18.50;60.20;;;;;;6123373;23;20002;-69
2021/06/20 09:06:02;;;;;;;4.32;3.88;;;18.60;59.90;;;;;;6121379;23;20338;-69
2021/06/20 09:09:14;;;;;;;5.10;4.03;;;18.70;60.20;;;;;;6121897;23;20080;-67
2021/06/20 09:11:42;;;;;;;5.55;3.70;;;18.80;60.00;;;;;;6122926;23;20085;-70
2021/06/20 09:14:48;;;;;;;5.47;3.78;;;18.90;59.90;;;;;;6123058;23;20010;-68
2021/06/20 09:18:03;;;;;;;4.82;3.05;;;19.00;59.50;;;;;;6122270;23;20074;-73
2021/06/20 09:21:10;;;;;;;4.68;4.18;;;19.10;59.10;;;;;;6121775;23;20113;-70
2021/06/20 09:24:16;;;;;;;5.75;5.13;;;19.20;59.20;;;;;;6122754;23;20020;-68
2021/06/20 09:27:22;;;;;;;25.98;21.42;;;19.30;58.90;;;;;;6123350;23;20045;-68
2021/06/20 09:30:29;;;;;;;7.72;7.03;;;19.40;59.30;;;;;;6122249;23;20052;-68
2021/06/20 09:33:35;;;;;;;7.68;4.88;;;19.50;58.80;;;;;;6123946;23;20446;-69
2021/06/20 09:36:41;;;;;;;5.47;4.38;;;19.60;58.70;;;;;;6123608;23;20342;-68
2021/06/20 09:40:02;;;;;;;4.20;3.80;;;19.70;59.10;;;;;;6121749;23;20473;-71
2021/06/20 09:43:08;;;;;;;4.72;4.32;;;19.90;58.20;;;;;;6120974;23;20033;-67
2021/06/20 09:46:14;;;;;;;4.45;3.92;;;19.90;58.40;;;;;;6123828;23;20002;-70
2021/06/20 09:49:20;;;;;;;5.20;4.22;;;20.00;57.50;;;;;;6123509;23;20009;-70
2021/06/20 09:52:27;;;;;;;4.63;4.20;;;20.10;57.60;;;;;;6122084;23;20002;-69
2021/06/20 09:55:33;;;;;;;6.05;4.70;;;20.30;57.40;;;;;;6122920;23;20002;-68
2021/06/20 09:58:43;;;;;;;8.98;4.80;;;20.40;57.20;;;;;;6123571;23;20727;-70
2021/06/20 10:01:49;;;;;;;28.40;24.08;;;20.50;56.50;;;;;;6121996;23;20026;-69
2021/06/20 10:04:55;;;;;;;9.63;8.63;;;20.60;56.80;;;;;;6120185;23;20020;-69
2021/06/20 10:08:02;;;;;;;7.20;5.32;;;20.70;56.10;;;;;;6121822;23;20081;-71
2021/06/20 10:10:56;;;;;;;7.38;5.32;;;20.80;55.60;;;;;;6121479;23;20020;-68
2021/06/20 10:13:22;;;;;;;4.88;4.35;;;20.90;55.00;;;;;;6115675;23;20002;-69
2021/06/20 10:15:49;;;;;;;7.55;5.32;;;21.00;55.00;;;;;;6119821;23;20013;-68
2021/06/20 10:18:16;;;;;;;6.10;4.63;;;21.00;55.90;;;;;;6120574;23;20709;-69
2021/06/20 10:20:43;;;;;;;5.05;4.55;;;21.10;55.20;;;;;;6122033;23;19994;-68
2021/06/20 10:23:21;;;;;;;13.30;5.10;;;21.20;55.50;;;;;;6122738;23;20022;-69
2021/06/20 10:25:47;;;;;;;8.15;5.25;;;21.30;55.70;;;;;;6121668;23;20453;-70
2021/06/20 10:28:16;;;;;;;10.13;4.20;;;21.40;55.50;;;;;;6122430;23;20029;-69
2021/06/20 10:30:46;;;;;;;9.82;5.07;;;21.50;55.30;;;;;;6121822;23;20002;-69
2021/06/20 10:33:18;;;;;;;10.27;4.70;;;21.60;53.60;;;;;;6122610;23;20089;-69
2021/06/20 10:35:56;;;;;;;8.02;4.88;;;21.70;51.30;;;;;;6122596;23;20023;-70
2021/06/20 10:38:43;;;;;;;6.20;4.82;;;21.70;50.30;;;;;;6122110;23;20025;-71
2021/06/20 10:41:30;;;;;;;7.60;4.00;;;21.70;50.00;;;;;;6122929;23;20419;-71
2021/06/20 10:43:59;;;;;;;15.40;7.30;;;21.70;50.20;;;;;;6119663;23;20014;-68
2021/06/20 10:46:27;;;;;;;7.93;5.28;;;21.80;51.30;;;;;;6123170;23;20234;-71
2021/06/20 10:48:53;;;;;;;10.05;5.88;;;21.80;49.60;;;;;;6121664;23;20005;-72
2021/06/20 10:51:24;;;;;;;8.68;5.35;;;21.80;48.70;;;;;;6120128;23;20009;-69
2021/06/20 10:53:52;;;;;;;6.28;5.05;;;21.90;48.20;;;;;;6122052;23;20013;-71
2021/06/20 10:56:27;;;;;;;5.90;4.78;;;21.90;48.60;;;;;;6120106;23;20508;-68
2021/06/20 10:59:33;;;;;;;7.57;4.57;;;22.00;48.70;;;;;;6121227;23;20006;-67
2021/06/20 11:02:41;;;;;;;6.28;4.78;;;22.00;48.40;;;;;;6120541;23;20312;-71
2021/06/20 11:05:48;;;;;;;5.28;4.68;;;22.00;48.30;;;;;;6118968;23;20046;-68
2021/06/20 11:08:57;;;;;;;11.88;5.10;;;22.00;48.00;;;;;;6120048;23;20374;-70
2021/06/20 11:11:43;;;;;;;11.25;5.35;;;21.90;47.90;;;;;;6121049;23;20002;-71
2021/06/20 11:14:49;;;;;;;6.10;4.38;;;22.00;48.80;;;;;;6119960;23;20010;-71
2021/06/20 11:17:55;;;;;;;7.00;4.53;;;22.00;49.00;;;;;;6121089;23;20002;-71
2021/06/20 11:21:02;;;;;;;11.63;5.85;;;22.10;49.30;;;;;;6122705;23;19998;-72
2021/06/20 11:23:31;;;;;;;10.20;5.35;;;22.20;49.50;;;;;;6121421;23;20013;-70
2021/06/20 11:26:00;;;;;;;8.38;4.45;;;22.20;49.30;;;;;;6122028;23;20014;-69
2021/06/20 11:28:28;;;;;;;8.38;5.00;;;22.20;49.80;;;;;;6122117;23;20030;-72
2021/06/20 11:31:23;;;;;;;9.32;4.90;;;22.30;50.60;;;;;;6121408;23;20052;-75
2021/06/20 11:33:57;;;;;;;7.72;4.82;;;22.40;50.30;;;;;;6097838;23;20092;-70
2021/06/20 11:36:26;;;;;;;9.15;5.30;;;22.50;50.40;;;;;;6121725;23;20077;-72
2021/06/20 11:38:53;;;;;;;10.95;5.70;;;22.50;50.00;;;;;;6121619;23;20423;-69
2021/06/20 11:41:23;;;;;;;7.55;5.55;;;22.60;49.70;;;;;;6122884;23;20085;-72
2021/06/20 11:43:58;;;;;;;7.47;5.10;;;22.60;50.00;;;;;;6121432;23;20427;-70
2021/06/20 11:46:30;;;;;;;13.48;5.82;;;22.70;49.60;;;;;;6122747;23;20009;-69
2021/06/20 11:48:59;;;;;;;10.50;5.70;;;22.70;49.30;;;;;;6121350;23;20002;-72
2021/06/20 11:51:33;;;;;;;8.35;5.78;;;22.80;49.00;;;;;;6121984;23;19998;-71
2021/06/20 11:54:17;;;;;;;8.43;5.78;;;22.80;48.90;;;;;;6121054;23;20017;-71
2021/06/20 11:57:05;;;;;;;7.45;6.03;;;22.90;49.10;;;;;;6120246;23;20053;-70
2021/06/20 11:59:35;;;;;;;39.97;35.75;;;23.00;48.90;;;;;;6121614;23;20006;-70
2021/06/20 12:02:04;;;;;;;19.15;13.90;;;23.00;48.80;;;;;;6122488;23;20002;-69
2021/06/20 12:04:33;;;;;;;13.48;11.05;;;23.00;48.70;;;;;;6124057;23;20014;-70
2021/06/20 12:07:05;;;;;;;11.57;8.60;;;23.10;48.30;;;;;;6123163;23;20002;-69
2021/06/20 12:09:32;;;;;;;12.55;7.57;;;23.10;48.30;;;;;;6123232;23;20049;-69
2021/06/20 12:12:01;;;;;;;7.57;6.45;;;23.20;48.50;;;;;;6123588;23;20077;-70
2021/06/20 12:14:30;;;;;;;11.20;5.95;;;23.20;47.80;;;;;;6121027;23;20002;-69
2021/06/20 12:16:58;;;;;;;9.10;6.35;;;23.20;47.30;;;;;;6122983;23;20006;-69
2021/06/20 12:19:31;;;;;;;7.57;6.25;;;23.30;47.20;;;;;;6119323;23;20426;-69
2021/06/20 12:22:43;;;;;;;38.30;31.75;;;23.30;46.60;;;;;;6120201;23;20017;-70
2021/06/20 12:25:49;;;;;;;26.92;17.55;;;23.30;46.40;;;;;;6120306;23;20093;-69
2021/06/20 12:28:56;;;;;;;16.60;10.63;;;23.40;46.80;;;;;;6120588;23;20509;-70
2021/06/20 12:32:02;;;;;;;13.75;7.93;;;23.40;46.80;;;;;;6120095;23;20025;-70
2021/06/20 12:35:08;;;;;;;12.07;7.93;;;23.50;46.50;;;;;;6121462;23;20036;-70
2021/06/20 12:38:17;;;;;;;8.45;7.57;;;23.50;45.70;;;;;;6121779;23;20010;-70
2021/06/20 12:41:26;;;;;;;8.75;7.28;;;23.50;45.50;;;;;;6120038;23;20085;-70
2021/06/20 12:44:44;;;;;;;10.45;6.30;;;23.50;45.10;;;;;;6121197;23;20374;-70
2021/06/20 12:47:50;;;;;;;7.65;6.75;;;23.50;44.60;;;;;;6122072;23;20085;-69
2021/06/20 12:50:59;;;;;;;7.03;6.03;;;23.60;44.50;;;;;;6121288;23;20034;-69
2021/06/20 12:54:12;;;;;;;7.75;6.20;;;23.50;44.60;;;;;;6120170;23;20060;-69
2021/06/20 12:57:21;;;;;;;12.88;5.97;;;23.60;44.50;;;;;;6121158;23;20009;-70
2021/06/20 13:00:30;;;;;;;10.40;6.90;;;23.60;44.20;;;;;;6121585;23;20012;-70
2021/06/20 13:03:36;;;;;;;9.10;5.75;;;23.60;43.90;;;;;;6120463;23;20042;-69
2021/06/20 13:06:42;;;;;;;7.82;5.90;;;23.60;43.70;;;;;;6120535;23;20465;-70
2021/06/20 13:09:48;;;;;;;8.48;5.68;;;23.60;43.70;;;;;;6121817;23;20037;-71
2021/06/20 13:12:54;;;;;;;10.15;6.60;;;23.60;43.80;;;;;;6120832;23;20009;-72
2021/06/20 13:16:01;;;;;;;10.18;5.55;;;23.70;45.40;;;;;;6120479;23;20009;-70
2021/06/20 13:19:08;;;;;;;9.82;5.78;;;23.60;45.60;;;;;;6121594;23;20693;-70
2021/06/20 13:22:14;;;;;;;11.02;6.22;;;23.60;45.90;;;;;;6119913;23;20010;-69
2021/06/20 13:25:20;;;;;;;10.38;6.47;;;23.50;46.20;;;;;;6120769;23;20014;-71
2021/06/20 13:27:48;;;;;;;7.55;6.45;;;23.50;46.20;;;;;;6119542;23;20061;-69
2021/06/20 13:30:15;;;;;;;10.02;6.38;;;23.50;46.30;;;;;;6120977;23;20469;-69
2021/06/20 13:32:42;;;;;;;16.17;14.07;;;23.40;46.80;;;;;;6118283;23;20006;-70
2021/06/20 13:35:11;;;;;;;17.92;12.77;;;23.40;47.20;;;;;;6120666;23;20033;-69
2021/06/20 13:37:39;;;;;;;16.52;10.27;;;23.30;47.60;;;;;;6120453;23;20009;-69
2021/06/20 13:40:45;;;;;;;10.20;9.20;;;23.30;48.00;;;;;;6120112;23;20012;-70
2021/06/20 13:43:32;;;;;;;8.48;7.60;;;23.30;48.10;;;;;;6122493;23;20383;-70
2021/06/20 13:45:58;;;;;;;10.40;7.68;;;23.30;47.40;;;;;;6121045;23;20017;-69
2021/06/20 13:48:25;;;;;;;12.25;7.07;;;23.20;47.30;;;;;;6121954;23;20025;-69
2021/06/20 13:50:51;;;;;;;15.20;8.50;;;23.20;47.90;;;;;;6121747;23;20002;-70
2021/06/20 13:53:18;;;;;;;13.23;7.57;;;23.30;47.80;;;;;;6121494;23;20009;-70
2021/06/20 13:55:44;;;;;;;7.50;5.88;;;23.20;48.30;;;;;;6122358;23;20330;-70
2021/06/20 13:58:13;;;;;;;8.90;7.07;;;23.20;48.60;;;;;;6120829;23;20033;-71
2021/06/20 14:00:40;;;;;;;10.32;7.15;;;23.10;48.90;;;;;;6122130;23;20057;-70
2021/06/20 14:03:06;;;;;;;10.68;6.65;;;23.10;49.20;;;;;;6119835;23;20033;-70
2021/06/20 14:05:33;;;;;;;10.15;8.13;;;23.10;49.10;;;;;;6122129;23;20020;-70
2021/06/20 14:07:59;;;;;;;14.43;12.00;;;23.10;48.90;;;;;;6121032;23;20555;-70
2021/06/20 14:10:26;;;;;;;15.63;11.13;;;23.10;48.70;;;;;;6121329;23;20010;-70
2021/06/20 14:12:55;;;;;;;12.30;9.40;;;23.00;49.30;;;;;;6121930;23;20025;-71
2021/06/20 14:15:22;;;;;;;14.13;8.23;;;23.00;49.70;;;;;;6120576;23;20006;-71
2021/06/20 14:17:50;;;;;;;13.32;8.27;;;23.00;50.10;;;;;;6120870;23;20018;-71
2021/06/20 14:20:16;;;;;;;13.50;7.68;;;22.90;50.20;;;;;;6119222;23;20017;-71
2021/06/20 14:22:43;;;;;;;11.80;7.72;;;22.90;50.50;;;;;;6122135;23;20366;-70
2021/06/20 14:25:10;;;;;;;12.15;7.50;;;22.90;50.80;;;;;;6120880;23;20013;-71
2021/06/20 14:27:37;;;;;;;10.57;8.38;;;22.80;51.00;;;;;;6121875;23;20495;-70